Time;durP1;ratioP1;P1;durP2;ratioP2;P2;SDS_P1;SDS_P2;PMS_P1;PMS_P2;Temp;Humidity;BMP_temperature;BMP_pressure;BME280_temperature;BME280_humidity;BME280_pressure;Samples;Min_cycle;Max_cycle;Signal;HPM_P1;HPM_P2
2022/03/15 00:02:12;;;;;;;3.22;1.80;;;20.50;52.90;;;;;;4992332;28;20260;-59
2022/03/15 00:04:42;;;;;;;3.55;1.85;;;20.60;52.90;;;;;;4992860;28;20212;-59
2022/03/15 00:07:13;;;;;;;5.20;1.85;;;20.60;52.90;;;;;;4992953;28;20221;-55
2022/03/15 00:09:44;;;;;;;2.75;2.20;;;20.60;52.90;;;;;;4993010;28;20626;-52
2022/03/15 00:12:15;;;;;;;3.28;1.88;;;20.60;52.80;;;;;;4992297;28;20233;-57
2022/03/15 00:14:47;;;;;;;3.38;1.83;;;20.70;52.80;;;;;;4992495;28;20263;-57
2022/03/15 00:17:18;;;;;;;2.45;2.00;;;20.70;52.80;;;;;;4992762;28;20628;-57
2022/03/15 00:19:49;;;;;;;3.08;1.95;;;20.70;52.80;;;;;;4992372;28;20194;-57
2022/03/15 00:22:20;;;;;;;4.43;1.80;;;20.70;52.80;;;;;;4992445;28;20760;-56
2022/03/15 00:24:51;;;;;;;2.03;1.52;;;20.80;52.80;;;;;;4991599;28;20283;-56
2022/03/15 00:27:21;;;;;;;2.88;1.75;;;20.80;52.70;;;;;;4991983;28;20241;-54
2022/03/15 00:29:54;;;;;;;2.65;2.05;;;20.80;52.70;;;;;;4992564;28;20249;-56
2022/03/15 00:32:25;;;;;;;2.30;1.80;;;20.90;52.80;;;;;;4992380;28;20267;-57
2022/03/15 00:34:55;;;;;;;2.78;1.70;;;20.90;52.70;;;;;;4990926;28;20189;-56
2022/03/15 00:37:26;;;;;;;3.72;1.90;;;20.90;52.60;;;;;;4992102;28;20221;-57
2022/03/15 00:39:56;;;;;;;3.80;1.95;;;20.90;52.60;;;;;;4991533;28;20209;-55
2022/03/15 00:42:27;;;;;;;3.40;1.80;;;20.90;52.60;;;;;;4992148;28;20256;-57
2022/03/15 00:45:06;;;;;;;3.05;1.77;;;21.00;52.70;;;;;;4992192;28;20194;-54
2022/03/15 00:47:36;;;;;;;2.28;1.83;;;21.00;52.60;;;;;;4991142;28;20305;-57
2022/03/15 00:50:07;;;;;;;2.35;1.73;;;21.00;52.50;;;;;;4991825;28;20208;-53
2022/03/15 01:08:20;;;;;;;2.05;1.75;;;21.10;52.40;;;;;;5952357;23;20249;-58
2022/03/15 01:10:51;;;;;;;2.15;1.80;;;21.10;52.40;;;;;;4970722;28;20592;-60
2022/03/15 01:13:22;;;;;;;3.75;1.90;;;21.10;52.40;;;;;;4972358;28;20312;-59
2022/03/15 01:15:53;;;;;;;3.85;2.20;;;21.20;52.50;;;;;;4977570;28;20217;-59
2022/03/15 01:18:24;;;;;;;2.10;1.85;;;21.10;52.40;;;;;;4991895;28;20671;-59
2022/03/15 01:20:55;;;;;;;3.35;1.98;;;21.10;52.40;;;;;;4991276;28;20201;-59
2022/03/15 01:23:27;;;;;;;2.35;1.73;;;21.20;52.50;;;;;;4991582;28;20194;-59
2022/03/15 01:25:58;;;;;;;2.38;2.00;;;21.20;52.50;;;;;;4991074;28;20374;-59
2022/03/15 01:28:29;;;;;;;3.13;1.90;;;21.20;52.50;;;;;;4990920;28;20197;-60
2022/03/15 01:31:00;;;;;;;3.42;2.00;;;21.20;52.50;;;;;;4989946;28;20194;-58
2022/03/15 01:33:30;;;;;;;3.67;1.90;;;21.20;52.50;;;;;;4990523;28;20221;-60
2022/03/15 01:36:01;;;;;;;2.85;1.90;;;21.20;52.40;;;;;;4990818;28;20910;-60
2022/03/15 01:38:34;;;;;;;2.60;2.00;;;21.20;52.30;;;;;;4990896;28;20292;-60
2022/03/15 01:41:05;;;;;;;3.50;1.92;;;21.20;52.40;;;;;;4990937;28;20194;-60
2022/03/15 01:43:35;;;;;;;2.72;2.08;;;21.20;52.50;;;;;;4990952;28;20288;-60
2022/03/15 01:46:06;;;;;;;3.70;2.05;;;21.20;52.60;;;;;;4990606;28;20296;-61
2022/03/15 01:48:37;;;;;;;3.58;2.08;;;21.20;52.60;;;;;;4990718;28;20193;-58
2022/03/15 01:51:08;;;;;;;2.63;1.90;;;21.20;52.90;;;;;;4990332;28;20206;-60
2022/03/15 02:53:37;;;;;;;3.95;2.00;;;21.30;52.90;;;;;;5500519;23;20249;-58
2022/03/15 02:56:10;;;;;;;2.72;1.55;;;21.30;52.80;;;;;;4976872;28;20224;-59
2022/03/15 02:58:42;;;;;;;2.50;1.88;;;21.20;52.70;;;;;;4989567;28;20194;-58
2022/03/15 03:01:13;;;;;;;3.65;2.08;;;21.20;52.80;;;;;;4989196;28;20201;-58
2022/03/15 03:03:43;;;;;;;3.15;1.75;;;21.30;52.80;;;;;;4989818;28;20194;-58
2022/03/15 03:06:14;;;;;;;2.97;1.80;;;21.30;52.80;;;;;;4988603;28;20219;-54
2022/03/15 03:08:47;;;;;;;3.50;2.22;;;21.30;52.80;;;;;;4988891;28;20189;-57
2022/03/15 03:11:18;;;;;;;3.45;1.90;;;21.30;52.90;;;;;;4989308;28;20197;-58
2022/03/15 03:13:50;;;;;;;3.55;1.92;;;21.30;52.80;;;;;;4988802;28;20748;-57
2022/03/15 03:16:21;;;;;;;2.63;2.05;;;21.20;52.80;;;;;;4989061;28;20247;-59
2022/03/15 03:18:54;;;;;;;2.47;1.90;;;21.20;52.80;;;;;;4989043;28;20189;-59
2022/03/15 03:21:25;;;;;;;2.60;1.95;;;21.30;52.90;;;;;;4990119;28;20849;-59
2022/03/15 03:23:58;;;;;;;4.68;2.40;;;21.30;53.00;;;;;;4990016;28;20197;-59
2022/03/15 03:26:29;;;;;;;3.72;2.00;;;21.30;52.90;;;;;;4988905;28;20225;-58
2022/03/15 03:28:59;;;;;;;3.53;2.13;;;21.30;52.90;;;;;;4988702;28;20198;-58
2022/03/15 03:31:30;;;;;;;4.13;2.30;;;21.20;53.20;;;;;;4989014;28;20215;-56
2022/03/15 03:34:01;;;;;;;2.55;1.85;;;21.20;52.70;;;;;;4987433;28;20207;-59
2022/03/15 03:36:32;;;;;;;3.30;1.70;;;21.20;52.70;;;;;;4986770;28;20221;-58
2022/03/15 03:39:05;;;;;;;2.50;1.80;;;21.20;52.60;;;;;;4989508;28;20309;-59
2022/03/15 03:41:37;;;;;;;2.40;1.88;;;21.20;52.80;;;;;;4990273;28;20193;-59
2022/03/15 03:44:07;;;;;;;2.70;1.73;;;21.20;52.80;;;;;;4990116;28;20310;-58
2022/03/15 03:46:38;;;;;;;2.97;2.00;;;21.20;52.90;;;;;;4990194;28;20629;-59
2022/03/15 03:49:09;;;;;;;2.78;1.98;;;21.20;52.90;;;;;;4989547;28;20268;-59
2022/03/15 03:51:40;;;;;;;3.10;2.05;;;21.20;53.00;;;;;;4989903;28;20252;-56
2022/03/15 03:54:13;;;;;;;3.45;2.00;;;21.20;53.00;;;;;;4975245;22;20750;-56
2022/03/15 03:56:43;;;;;;;2.42;1.75;;;21.20;53.10;;;;;;4951743;28;20274;-57
2022/03/15 03:59:15;;;;;;;2.65;1.90;;;21.20;53.10;;;;;;4952020;28;20194;-56
2022/03/15 04:01:45;;;;;;;2.20;1.95;;;21.20;53.10;;;;;;4932637;29;20266;-58
2022/03/15 04:04:16;;;;;;;3.17;1.58;;;21.20;53.10;;;;;;4932362;29;20266;-56
2022/03/15 04:06:46;;;;;;;2.50;1.98;;;21.20;53.00;;;;;;4942528;28;20228;-55
2022/03/15 04:09:19;;;;;;;4.35;2.17;;;21.20;53.10;;;;;;4951416;28;20202;-57
2022/03/15 04:11:50;;;;;;;3.90;2.00;;;21.20;53.00;;;;;;4951529;28;20666;-59
2022/03/15 04:14:20;;;;;;;4.05;2.17;;;21.20;53.00;;;;;;4951623;28;20199;-58
2022/03/15 04:16:51;;;;;;;3.65;1.90;;;21.20;53.00;;;;;;4951479;28;20223;-58
2022/03/15 04:19:22;;;;;;;3.65;2.00;;;21.20;53.00;;;;;;4951126;28;20250;-57
2022/03/15 04:21:52;;;;;;;3.92;2.08;;;21.20;53.00;;;;;;4948215;28;20223;-58
2022/03/15 04:24:25;;;;;;;3.05;2.13;;;21.20;53.00;;;;;;4951391;28;20293;-58
2022/03/15 04:26:57;;;;;;;3.13;2.28;;;21.20;53.00;;;;;;4951254;28;20226;-57
2022/03/15 04:29:28;;;;;;;3.67;2.25;;;21.20;53.10;;;;;;4951590;28;20261;-58
2022/03/15 04:31:58;;;;;;;3.72;2.38;;;21.20;53.20;;;;;;4951542;28;20207;-58
2022/03/15 04:34:31;;;;;;;3.30;2.40;;;21.20;53.20;;;;;;4951066;28;20344;-58
2022/03/15 04:37:01;;;;;;;3.22;2.00;;;21.20;53.30;;;;;;4951058;28;20707;-59
2022/03/15 04:39:34;;;;;;;3.03;2.22;;;21.20;53.30;;;;;;4951363;28;20257;-59
2022/03/15 04:42:05;;;;;;;3.95;2.38;;;21.10;53.30;;;;;;4954197;28;20202;-58
2022/03/15 04:44:35;;;;;;;4.38;2.58;;;21.10;53.30;;;;;;4972750;28;20201;-58
2022/03/15 04:47:07;;;;;;;4.18;2.55;;;21.10;53.30;;;;;;4973379;28;20511;-59
2022/03/15 04:49:37;;;;;;;2.83;2.10;;;21.20;53.30;;;;;;4973745;28;20194;-58
2022/03/15 04:52:08;;;;;;;3.67;2.28;;;21.20;53.30;;;;;;4962124;28;20443;-58
2022/03/15 04:54:41;;;;;;;3.10;2.20;;;21.20;53.30;;;;;;4954512;28;20203;-58
2022/03/15 04:57:11;;;;;;;3.20;2.42;;;21.20;53.30;;;;;;4981183;23;20230;-56
2022/03/15 04:59:42;;;;;;;4.20;2.50;;;21.10;53.10;;;;;;4973237;28;20202;-52
2022/03/15 05:02:13;;;;;;;3.78;2.17;;;21.10;53.10;;;;;;4973505;28;20194;-54
2022/03/15 05:04:43;;;;;;;3.75;2.15;;;21.10;53.10;;;;;;4973318;28;20257;-56
2022/03/15 05:07:14;;;;;;;3.67;2.13;;;21.10;53.10;;;;;;5000490;28;20275;-55
2022/03/15 05:12:29;;;;;;;3.33;2.00;;;21.10;53.10;;;;;;5011498;28;20344;-52
2022/03/15 05:15:00;;;;;;;2.40;1.90;;;21.10;53.10;;;;;;5012578;28;20656;-55
2022/03/15 05:17:31;;;;;;;3.08;2.10;;;21.10;53.10;;;;;;5012116;28;20287;-57
2022/03/15 05:20:01;;;;;;;2.67;2.15;;;21.10;53.00;;;;;;5011832;28;20247;-59
2022/03/15 05:22:32;;;;;;;2.90;2.17;;;21.10;53.10;;;;;;5011567;28;20620;-57
2022/03/15 05:25:04;;;;;;;2.80;2.20;;;21.10;53.10;;;;;;5012204;28;20197;-55
2022/03/15 05:27:37;;;;;;;3.22;2.35;;;21.10;53.80;;;;;;5012221;28;20224;-52
2022/03/15 05:30:09;;;;;;;3.90;2.42;;;21.10;53.20;;;;;;5005433;28;20205;-57
2022/03/15 05:32:39;;;;;;;3.25;1.90;;;21.10;53.20;;;;;;4992574;28;20229;-54
2022/03/15 05:35:10;;;;;;;4.57;2.50;;;21.10;53.30;;;;;;4992031;28;20209;-56
2022/03/15 05:37:41;;;;;;;3.08;2.05;;;21.10;53.30;;;;;;5004936;28;20200;-55
2022/03/15 05:40:14;;;;;;;2.83;2.50;;;21.10;53.80;;;;;;5011370;28;20532;-53
2022/03/15 05:42:45;;;;;;;3.60;2.33;;;21.10;53.30;;;;;;5005214;28;20311;-57
2022/03/15 05:45:16;;;;;;;2.90;2.60;;;21.10;53.30;;;;;;4991920;28;20200;-57
2022/03/15 05:47:59;;;;;;;3.17;2.15;;;21.10;53.30;;;;;;4992411;28;20229;-57
2022/03/15 05:50:29;;;;;;;3.22;2.10;;;21.10;53.20;;;;;;4992101;28;20728;-54
2022/03/15 05:53:03;;;;;;;2.70;2.33;;;21.10;53.20;;;;;;5006627;28;20243;-56
2022/03/15 05:55:36;;;;;;;3.22;2.20;;;21.00;53.20;;;;;;5011620;28;20359;-58
2022/03/15 05:58:07;;;;;;;4.07;2.75;;;21.10;53.20;;;;;;5011548;28;20251;-54
2022/03/15 06:00:38;;;;;;;3.55;2.35;;;21.00;53.10;;;;;;5000471;28;20206;-52
2022/03/15 06:03:10;;;;;;;3.22;2.30;;;21.10;53.20;;;;;;4991478;28;20197;-58
2022/03/15 06:05:40;;;;;;;3.55;1.83;;;21.00;53.10;;;;;;4991366;28;20221;-56
2022/03/15 06:08:11;;;;;;;3.45;2.22;;;21.00;53.10;;;;;;5007426;28;20254;-56
2022/03/15 06:10:44;;;;;;;4.10;2.40;;;21.00;53.10;;;;;;5011317;28;20197;-54
2022/03/15 06:13:14;;;;;;;3.40;2.40;;;21.00;53.20;;;;;;5011401;28;20224;-58
2022/03/15 06:15:45;;;;;;;2.25;2.00;;;21.00;53.20;;;;;;5011409;28;20278;-58
2022/03/15 06:18:16;;;;;;;3.47;2.30;;;21.00;53.30;;;;;;5011055;28;20196;-59
2022/03/15 06:20:47;;;;;;;3.55;2.20;;;21.00;53.30;;;;;;5011325;28;20197;-58
2022/03/15 06:23:23;;;;;;;3.42;2.45;;;21.00;53.30;;;;;;5010455;28;20196;-59
2022/03/15 06:25:56;;;;;;;3.10;2.10;;;21.00;53.30;;;;;;5010813;28;20628;-58
2022/03/15 06:28:26;;;;;;;2.67;2.28;;;20.90;53.20;;;;;;5006395;28;20193;-58
2022/03/15 06:30:57;;;;;;;4.18;2.20;;;21.00;53.30;;;;;;4985021;28;20197;-57
2022/03/15 06:33:28;;;;;;;4.35;2.63;;;20.90;53.30;;;;;;4991139;28;20312;-58
2022/03/15 06:35:59;;;;;;;2.95;2.28;;;20.90;53.20;;;;;;4991257;28;20226;-58
2022/03/15 06:38:30;;;;;;;2.72;2.20;;;20.90;53.20;;;;;;5007671;28;20640;-58
2022/03/15 06:41:02;;;;;;;3.83;2.30;;;20.90;53.20;;;;;;5011113;28;20626;-58
2022/03/15 06:43:33;;;;;;;2.88;2.20;;;20.90;53.20;;;;;;4997899;28;20604;-58
2022/03/15 06:46:04;;;;;;;4.38;2.40;;;20.90;53.20;;;;;;4990810;28;20864;-57
2022/03/15 06:48:35;;;;;;;4.30;2.22;;;20.90;53.20;;;;;;4990782;28;20244;-59
2022/03/15 06:51:05;;;;;;;3.28;2.25;;;20.90;53.20;;;;;;4990863;28;20471;-57
2022/03/15 06:53:36;;;;;;;4.15;2.60;;;20.90;53.30;;;;;;4994456;28;20335;-58
2022/03/15 06:56:09;;;;;;;4.07;2.13;;;20.90;53.50;;;;;;4991411;28;20229;-58
2022/03/15 06:58:40;;;;;;;3.47;2.33;;;20.90;53.50;;;;;;4991024;28;20284;-59
2022/03/15 07:01:10;;;;;;;4.00;2.33;;;20.90;53.50;;;;;;4991228;28;20311;-59
2022/03/15 07:03:41;;;;;;;4.07;2.47;;;20.90;53.50;;;;;;4990546;28;20252;-57
2022/03/15 07:06:12;;;;;;;3.60;2.55;;;20.80;53.40;;;;;;4990714;28;20228;-58
2022/03/15 07:08:42;;;;;;;3.47;2.00;;;20.80;53.50;;;;;;5007377;28;20219;-58
2022/03/15 07:11:15;;;;;;;4.10;2.50;;;20.80;53.50;;;;;;5010267;28;20197;-56
2022/03/15 07:13:45;;;;;;;3.15;2.50;;;20.80;53.50;;;;;;5010342;28;20283;-57
2022/03/15 07:16:16;;;;;;;2.88;2.40;;;20.80;53.50;;;;;;5010227;28;20225;-58
2022/03/15 07:18:47;;;;;;;3.10;2.10;;;20.80;53.50;;;;;;5010282;28;20193;-58
2022/03/15 07:21:17;;;;;;;3.40;2.30;;;20.80;53.50;;;;;;5010267;28;20232;-58
2022/03/15 07:23:48;;;;;;;3.65;2.30;;;20.80;53.50;;;;;;5009839;28;20838;-58
2022/03/15 07:26:20;;;;;;;2.55;2.22;;;20.80;53.50;;;;;;5010326;28;20306;-59
2022/03/15 07:28:51;;;;;;;5.57;3.10;;;20.80;53.50;;;;;;5010240;28;20215;-59
2022/03/15 07:31:22;;;;;;;4.18;2.67;;;20.80;54.30;;;;;;4993288;28;20209;-56
2022/03/15 07:33:53;;;;;;;4.28;2.50;;;20.80;54.70;;;;;;4990413;28;20229;-57
2022/03/15 07:36:23;;;;;;;3.63;2.45;;;20.80;54.60;;;;;;4990410;28;20218;-58
2022/03/15 07:38:54;;;;;;;5.18;2.55;;;20.80;54.40;;;;;;5007097;28;20240;-56
2022/03/15 07:41:27;;;;;;;4.82;2.80;;;20.80;54.40;;;;;;4978966;28;20249;-56
2022/03/15 07:43:57;;;;;;;6.22;2.90;;;20.80;54.30;;;;;;4990125;28;20603;-59
2022/03/15 07:46:28;;;;;;;4.13;2.45;;;20.80;54.30;;;;;;4990287;28;20217;-55
2022/03/15 07:48:58;;;;;;;4.50;2.60;;;20.80;54.20;;;;;;4990439;28;20202;-58
2022/03/15 07:51:29;;;;;;;5.05;2.58;;;20.70;54.10;;;;;;4990182;28;20611;-58
2022/03/15 07:54:00;;;;;;;4.93;2.60;;;20.70;54.10;;;;;;5006888;28;20228;-56
2022/03/15 07:56:32;;;;;;;3.40;2.38;;;20.70;54.10;;;;;;5010366;28;20272;-58
2022/03/15 07:59:03;;;;;;;4.25;2.50;;;20.70;54.00;;;;;;5009673;28;20197;-56
2022/03/15 08:01:34;;;;;;;3.83;2.38;;;20.70;54.00;;;;;;4991157;28;20264;-59
2022/03/15 08:04:05;;;;;;;4.22;2.65;;;20.70;54.00;;;;;;4990257;28;20197;-51
2022/03/15 08:06:37;;;;;;;4.07;2.78;;;20.70;54.00;;;;;;4990393;28;20224;-54
2022/03/15 08:09:08;;;;;;;4.72;2.40;;;20.70;54.00;;;;;;5007251;28;20578;-52
2022/03/15 08:11:41;;;;;;;3.28;2.22;;;20.70;53.90;;;;;;5009395;28;20205;-57
2022/03/15 08:14:11;;;;;;;3.45;2.25;;;20.70;53.90;;;;;;5009642;28;20747;-59
2022/03/15 08:16:42;;;;;;;3.58;2.63;;;20.70;53.90;;;;;;5011208;28;20217;-56
2022/03/15 08:19:14;;;;;;;4.30;2.75;;;20.70;53.90;;;;;;5003855;28;20538;-59
2022/03/15 08:21:44;;;;;;;4.03;2.63;;;20.70;54.00;;;;;;4985129;28;20206;-59
2022/03/15 08:24:16;;;;;;;3.40;2.17;;;20.70;53.90;;;;;;5011371;28;20262;-59
2022/03/15 08:26:49;;;;;;;3.78;2.47;;;20.70;53.90;;;;;;5013330;28;20221;-59
2022/03/15 08:29:19;;;;;;;3.65;2.20;;;20.70;53.90;;;;;;5013045;28;20661;-55
2022/03/15 08:31:50;;;;;;;4.70;2.65;;;20.70;54.00;;;;;;4993908;28;20202;-59
2022/03/15 08:34:20;;;;;;;3.85;2.58;;;20.70;53.90;;;;;;4993088;28;20225;-58
2022/03/15 08:36:53;;;;;;;3.20;2.30;;;20.60;53.90;;;;;;4993208;28;20214;-59
2022/03/15 08:39:24;;;;;;;3.55;2.30;;;20.60;53.80;;;;;;5011473;28;20675;-58
2022/03/15 08:41:56;;;;;;;2.78;2.10;;;20.60;53.80;;;;;;5012825;28;20208;-57
2022/03/15 08:44:27;;;;;;;3.17;2.63;;;20.60;53.90;;;;;;5012668;28;20197;-58
2022/03/15 08:46:58;;;;;;;4.38;2.65;;;20.60;53.90;;;;;;5012966;28;20614;-55
2022/03/15 08:49:28;;;;;;;3.28;2.30;;;20.60;53.90;;;;;;4998875;28;20202;-57
2022/03/15 08:52:01;;;;;;;4.18;2.03;;;20.60;53.90;;;;;;4993516;28;20288;-57
2022/03/15 08:54:31;;;;;;;3.42;2.30;;;20.60;53.90;;;;;;4988571;28;20224;-58
2022/03/15 08:57:04;;;;;;;2.90;1.95;;;20.60;53.90;;;;;;5002285;23;20229;-60
2022/03/15 08:59:34;;;;;;;4.28;2.58;;;20.60;54.50;;;;;;4990909;28;20236;-58
2022/03/15 09:02:05;;;;;;;3.53;2.47;;;20.60;53.90;;;;;;4991461;28;20205;-60
2022/03/15 09:04:36;;;;;;;3.92;2.30;;;20.50;53.90;;;;;;4991574;28;20204;-60
2022/03/15 09:07:07;;;;;;;3.40;2.30;;;20.60;53.90;;;;;;4989870;28;20276;-60
2022/03/15 09:09:38;;;;;;;2.75;2.13;;;20.60;53.90;;;;;;4991952;28;20962;-51
2022/03/15 09:12:11;;;;;;;2.97;2.08;;;20.50;53.90;;;;;;4991109;28;20923;-60
2022/03/15 09:14:41;;;;;;;3.38;2.20;;;20.50;53.90;;;;;;4991948;28;20240;-60
2022/03/15 09:17:12;;;;;;;3.28;2.40;;;20.50;53.90;;;;;;4991498;28;20220;-60
2022/03/15 09:19:42;;;;;;;4.03;2.30;;;20.50;53.90;;;;;;4990747;28;20548;-60
2022/03/15 09:22:13;;;;;;;2.55;2.00;;;20.50;53.90;;;;;;4990774;28;20193;-59
2022/03/15 09:24:44;;;;;;;3.83;2.40;;;20.50;53.90;;;;;;4990764;28;20280;-58
2022/03/15 09:27:17;;;;;;;3.63;2.33;;;20.50;54.50;;;;;;4991248;28;20272;-51
2022/03/15 09:29:47;;;;;;;2.53;1.98;;;20.50;53.90;;;;;;4991325;28;20252;-60
2022/03/15 09:32:18;;;;;;;4.88;2.13;;;20.40;53.80;;;;;;4991148;28;20351;-61
2022/03/15 09:34:48;;;;;;;4.45;2.10;;;20.50;53.90;;;;;;4990971;28;20229;-57
2022/03/15 09:37:19;;;;;;;2.53;1.85;;;20.50;53.90;;;;;;4990446;28;20630;-59
2022/03/15 09:39:51;;;;;;;3.42;2.03;;;20.40;53.90;;;;;;4990245;28;20253;-60
2022/03/15 09:42:24;;;;;;;2.85;1.90;;;20.40;53.90;;;;;;4990640;28;20301;-60
2022/03/15 09:44:58;;;;;;;3.45;2.00;;;20.40;53.90;;;;;;4990779;28;20626;-60
2022/03/15 09:47:35;;;;;;;2.92;2.30;;;20.40;53.90;;;;;;4989813;28;20213;-59
2022/03/15 09:50:07;;;;;;;2.42;1.95;;;20.40;54.00;;;;;;4990422;28;20645;-59
2022/03/15 09:52:39;;;;;;;3.40;1.98;;;20.40;54.00;;;;;;4990281;28;20198;-61
2022/03/15 09:55:13;;;;;;;2.38;1.90;;;20.40;53.90;;;;;;4990270;28;20229;-54
2022/03/15 10:57:26;;;;;;;2.53;1.67;;;20.20;53.90;;;;;;5695654;23;20218;-52
2022/03/15 11:00:09;;;;;;;2.45;1.73;;;20.30;54.00;;;;;;4968588;28;20471;-52
2022/03/15 11:02:49;;;;;;;2.65;1.60;;;20.20;53.90;;;;;;4967745;28;20213;-51
2022/03/15 11:05:38;;;;;;;2.25;1.50;;;20.20;53.90;;;;;;4968346;28;20563;-56
2022/03/15 11:08:14;;;;;;;1.88;1.55;;;20.20;54.00;;;;;;4987984;28;20213;-51
2022/03/15 11:10:48;;;;;;;2.58;1.80;;;20.20;53.90;;;;;;4988456;28;20319;-60
2022/03/15 11:13:21;;;;;;;2.10;1.70;;;20.20;53.90;;;;;;4989640;28;20192;-60
2022/03/15 11:15:55;;;;;;;2.72;1.85;;;20.20;53.90;;;;;;4988833;28;20225;-60
2022/03/15 11:18:28;;;;;;;2.67;1.83;;;20.20;54.00;;;;;;4990454;28;20207;-60
2022/03/15 11:21:02;;;;;;;2.47;1.65;;;20.20;54.00;;;;;;4991516;28;20193;-60
2022/03/15 11:23:41;;;;;;;2.25;1.60;;;20.20;54.00;;;;;;4991118;28;20208;-61
2022/03/15 11:26:17;;;;;;;2.03;1.50;;;20.20;54.00;;;;;;4990472;28;20275;-62
2022/03/15 11:28:50;;;;;;;1.90;1.48;;;20.20;54.00;;;;;;4990532;28;20201;-63
2022/03/15 11:31:21;;;;;;;1.80;1.42;;;20.20;54.10;;;;;;4990422;28;20208;-63
2022/03/15 11:33:54;;;;;;;2.22;1.60;;;20.20;54.00;;;;;;4990038;28;20582;-58
2022/03/15 11:36:27;;;;;;;3.05;1.80;;;20.10;54.00;;;;;;4990400;28;20213;-59
2022/03/15 11:38:58;;;;;;;2.75;1.83;;;20.10;54.00;;;;;;4990576;28;20202;-62
2022/03/15 11:41:30;;;;;;;2.20;1.40;;;20.10;54.00;;;;;;4990445;28;20197;-61
2022/03/15 11:44:12;;;;;;;2.40;1.50;;;20.10;54.00;;;;;;4990489;28;20601;-59
2022/03/15 11:46:50;;;;;;;2.67;1.75;;;20.10;54.00;;;;;;4990438;28;20316;-61
2022/03/15 11:49:30;;;;;;;2.38;1.60;;;20.10;53.90;;;;;;4989777;28;20206;-61
2022/03/15 11:52:12;;;;;;;2.08;1.60;;;20.10;54.00;;;;;;4992448;28;20186;-58
2022/03/15 11:54:57;;;;;;;2.40;1.70;;;20.10;53.90;;;;;;4994091;28;20311;-63
2022/03/15 11:57:32;;;;;;;1.63;1.40;;;20.10;53.90;;;;;;4994663;28;20312;-63
2022/03/15 12:00:04;;;;;;;2.47;1.80;;;20.10;53.80;;;;;;4994326;28;20228;-63
2022/03/15 12:02:40;;;;;;;2.40;1.67;;;20.10;53.80;;;;;;4994028;28;20197;-62
2022/03/15 12:05:20;;;;;;;2.55;1.70;;;20.10;53.90;;;;;;4993728;28;20745;-63
2022/03/15 12:08:12;;;;;;;2.13;1.50;;;20.00;53.90;;;;;;4993714;28;20520;-62
2022/03/15 12:10:47;;;;;;;1.88;1.40;;;20.00;53.90;;;;;;4993986;28;20204;-62
2022/03/15 12:13:20;;;;;;;1.67;1.20;;;20.10;54.00;;;;;;4993698;28;20264;-60
2022/03/15 12:15:53;;;;;;;1.83;1.30;;;20.00;54.00;;;;;;4993949;28;20232;-62
2022/03/15 12:18:28;;;;;;;1.50;1.27;;;20.00;53.90;;;;;;4993974;28;20256;-63
2022/03/15 12:21:03;;;;;;;1.63;1.30;;;20.00;53.90;;;;;;4993882;28;20280;-61
2022/03/15 12:23:42;;;;;;;1.42;1.33;;;20.00;54.00;;;;;;4993736;28;20299;-64
2022/03/15 12:26:24;;;;;;;1.67;1.30;;;20.00;54.00;;;;;;4993578;28;20227;-63
2022/03/15 12:29:03;;;;;;;2.95;1.60;;;20.00;54.00;;;;;;4993812;28;20704;-63
2022/03/15 12:31:43;;;;;;;2.25;1.40;;;20.00;54.00;;;;;;4994026;28;20790;-62
2022/03/15 12:34:15;;;;;;;1.45;1.35;;;20.00;54.00;;;;;;4992016;28;20201;-60
2022/03/15 12:36:58;;;;;;;1.60;1.35;;;20.00;53.90;;;;;;4991209;28;20272;-61
2022/03/15 12:39:30;;;;;;;1.58;1.30;;;20.00;53.90;;;;;;4993366;28;20201;-64
2022/03/15 12:42:10;;;;;;;1.77;1.38;;;20.00;53.90;;;;;;4993521;28;20248;-64
2022/03/15 12:44:45;;;;;;;1.40;1.15;;;20.00;53.90;;;;;;4993801;28;20233;-62
2022/03/15 12:47:20;;;;;;;2.47;1.63;;;20.00;53.90;;;;;;4993580;28;20220;-58
2022/03/15 12:50:18;;;;;;;1.80;1.20;;;20.00;54.00;;;;;;4993365;28;20292;-59
2022/03/15 12:52:51;;;;;;;1.83;1.20;;;19.90;53.90;;;;;;4993281;28;20553;-62
2022/03/15 12:55:23;;;;;;;2.58;1.70;;;20.00;53.90;;;;;;4993017;28;20221;-62
2022/03/15 12:57:58;;;;;;;1.40;1.30;;;19.90;53.90;;;;;;5004684;23;20300;-61
2022/03/15 13:00:32;;;;;;;2.10;1.70;;;20.00;54.00;;;;;;4993588;28;20719;-60
2022/03/15 13:03:06;;;;;;;2.22;1.23;;;20.00;54.00;;;;;;4992464;28;20202;-60
2022/03/15 13:05:40;;;;;;;1.95;1.25;;;19.90;54.00;;;;;;4992969;28;20816;-60
2022/03/15 13:08:11;;;;;;;1.70;1.27;;;19.90;54.00;;;;;;4993216;28;20201;-60
2022/03/15 13:10:43;;;;;;;1.70;1.23;;;19.90;54.00;;;;;;4992865;28;20668;-60
2022/03/15 13:13:27;;;;;;;1.65;1.10;;;19.90;54.00;;;;;;4992864;28;20733;-60
2022/03/15 13:15:59;;;;;;;1.55;1.20;;;19.90;54.10;;;;;;4992298;28;20268;-59
2022/03/15 13:18:32;;;;;;;1.85;1.15;;;19.90;54.10;;;;;;4992378;28;20276;-60
2022/03/15 13:21:05;;;;;;;1.30;1.15;;;19.90;54.10;;;;;;4992583;28;20861;-59
2022/03/15 13:23:37;;;;;;;2.05;1.58;;;19.90;54.00;;;;;;4992494;28;20237;-60
2022/03/15 13:26:12;;;;;;;1.85;1.17;;;19.90;54.00;;;;;;4992575;28;20260;-60
2022/03/15 13:28:44;;;;;;;1.73;1.33;;;19.90;54.00;;;;;;4992768;28;20294;-60
2022/03/15 13:31:16;;;;;;;2.22;1.25;;;19.90;54.00;;;;;;4992704;28;20201;-60
2022/03/15 13:33:53;;;;;;;2.22;1.25;;;19.90;54.00;;;;;;4992255;28;20720;-60
2022/03/15 13:36:24;;;;;;;1.77;1.25;;;19.90;54.00;;;;;;4991956;28;20233;-60
2022/03/15 13:38:55;;;;;;;1.65;1.55;;;19.90;54.00;;;;;;4992367;28;20232;-60
2022/03/15 13:41:28;;;;;;;1.42;1.20;;;19.90;54.00;;;;;;4992747;28;20256;-59
2022/03/15 13:43:59;;;;;;;1.08;0.98;;;19.90;54.00;;;;;;4992581;28;20275;-60
2022/03/15 13:46:34;;;;;;;1.25;1.10;;;19.80;54.10;;;;;;4990029;28;20221;-60
2022/03/15 13:49:06;;;;;;;1.58;1.35;;;19.90;54.10;;;;;;4991985;28;20199;-60
2022/03/15 13:51:39;;;;;;;1.30;1.20;;;19.80;54.10;;;;;;4992396;28;20209;-60
2022/03/15 13:54:10;;;;;;;1.60;1.20;;;19.80;54.10;;;;;;4992515;28;20666;-60
2022/03/15 13:56:43;;;;;;;1.30;1.00;;;19.80;54.10;;;;;;5003798;23;20229;-56
2022/03/15 13:59:15;;;;;;;1.67;1.25;;;19.80;54.10;;;;;;4992105;28;20197;-57
2022/03/15 14:01:47;;;;;;;1.17;1.02;;;19.80;54.10;;;;;;4991921;28;20197;-58
2022/03/15 14:04:21;;;;;;;1.63;1.38;;;19.80;54.10;;;;;;4991158;28;20277;-53
2022/03/15 14:06:52;;;;;;;1.65;1.17;;;19.80;54.10;;;;;;4991882;28;20225;-58
2022/03/15 14:09:30;;;;;;;1.70;1.00;;;19.80;54.10;;;;;;4992122;28;20267;-57
2022/03/15 14:12:13;;;;;;;1.40;1.20;;;19.80;54.10;;;;;;4991792;28;20201;-57
2022/03/15 14:14:50;;;;;;;2.33;1.00;;;19.80;54.00;;;;;;4990768;28;20201;-55
2022/03/15 14:17:22;;;;;;;1.00;0.80;;;19.80;54.00;;;;;;4991856;28;20225;-58
2022/03/15 14:19:58;;;;;;;1.23;1.00;;;19.80;54.00;;;;;;4991131;28;20197;-57
2022/03/15 14:22:29;;;;;;;1.17;1.08;;;19.80;54.00;;;;;;4979313;28;20256;-56
2022/03/15 14:25:01;;;;;;;1.08;0.90;;;19.80;54.00;;;;;;4972495;28;20202;-58
2022/03/15 14:27:32;;;;;;;1.15;1.02;;;19.80;54.00;;;;;;4972853;28;20280;-57
2022/03/15 14:30:06;;;;;;;1.13;1.02;;;19.80;54.00;;;;;;4973405;28;20670;-59
2022/03/15 14:32:36;;;;;;;1.30;0.90;;;19.80;54.00;;;;;;4973626;28;20682;-54
2022/03/15 14:35:11;;;;;;;1.20;1.10;;;19.80;54.00;;;;;;4984825;28;20198;-58
2022/03/15 14:37:44;;;;;;;1.00;0.90;;;19.80;54.10;;;;;;4991662;28;20573;-57
2022/03/15 14:40:17;;;;;;;1.30;1.10;;;19.70;54.00;;;;;;4991608;28;20202;-57
2022/03/15 14:42:53;;;;;;;1.17;0.82;;;19.80;54.10;;;;;;4991544;28;20204;-58
2022/03/15 14:45:26;;;;;;;1.25;1.00;;;19.70;54.10;;;;;;4971528;28;20253;-58
2022/03/15 14:47:57;;;;;;;1.08;1.00;;;19.70;54.10;;;;;;4952140;28;20198;-59
2022/03/15 14:50:32;;;;;;;1.50;1.00;;;19.70;54.10;;;;;;4981757;28;20255;-58
2022/03/15 14:53:03;;;;;;;1.45;1.05;;;19.70;54.10;;;;;;4973851;28;20433;-59
2022/03/15 14:55:34;;;;;;;1.10;0.90;;;19.70;54.10;;;;;;4971581;28;20352;-59
2022/03/15 14:58:06;;;;;;;1.00;0.90;;;19.70;54.70;;;;;;4984431;23;20316;-63
2022/03/15 15:00:37;;;;;;;1.30;1.20;;;19.70;54.10;;;;;;4971843;28;20245;-63
2022/03/15 15:03:08;;;;;;;1.20;1.10;;;19.70;54.00;;;;;;4971684;28;20198;-64
2022/03/15 15:05:42;;;;;;;1.00;0.77;;;19.70;54.00;;;;;;4970460;28;20255;-64
2022/03/15 15:08:13;;;;;;;1.15;1.02;;;19.70;54.10;;;;;;4971543;28;20205;-64
2022/03/15 15:10:46;;;;;;;0.95;0.90;;;19.70;54.10;;;;;;4971993;28;20206;-62
2022/03/15 15:13:17;;;;;;;0.82;0.82;;;19.70;54.10;;;;;;4971498;28;20224;-64
2022/03/15 15:15:51;;;;;;;1.15;0.93;;;19.70;54.10;;;;;;4971516;28;20268;-56
2022/03/15 15:18:23;;;;;;;1.23;0.93;;;19.70;54.10;;;;;;4971618;28;20202;-60
2022/03/15 15:20:55;;;;;;;2.75;1.27;;;19.70;54.10;;;;;;4970525;28;20201;-63
2022/03/15 15:23:26;;;;;;;1.15;1.05;;;19.70;54.10;;;;;;4951850;28;20207;-60
2022/03/15 15:25:57;;;;;;;1.00;0.90;;;19.60;54.00;;;;;;4951316;28;20300;-62
2022/03/15 15:28:29;;;;;;;1.15;0.90;;;19.70;54.10;;;;;;4951835;28;20202;-62
2022/03/15 15:31:01;;;;;;;1.13;0.80;;;19.70;54.10;;;;;;4951842;28;20199;-62
2022/03/15 15:33:33;;;;;;;1.00;0.90;;;19.60;54.10;;;;;;4952011;28;20655;-62